Anguera, Brazil
Current Conditions -  °F | °C
As of 4:00 AM on Wednesday 26 Nov 2014 (Local Time) from SBSV Reporting Station
Scattered Clouds Scattered Clouds  
Wind Chill: 75°   Ceiling: Unl
Heat Index: 75°   Visibility: 6mi
Dew Point: 68°   Wind: 5mph
Humidity: 78%   Direction: 50°NE
Pressure: 29.88"   Gusts: NA
Location:  12.14°S, 39.24°W
Report Text: SBSV 260700Z 05004KT 9999 SCT017 24/20 Q1012
Loading
Personal Weather Stations






























Interactive Weather Map New forecast layout! Learn more

10-Day Weather Forecast

Advertisements
Track Severe Weather on mobile